Time;durP1;ratioP1;P1;durP2;ratioP2;P2;SDS_P1;SDS_P2;PMS_P1;PMS_P2;Temp;Humidity;BMP_temperature;BMP_pressure;BME280_temperature;BME280_humidity;BME280_pressure;Samples;Min_cycle;Max_cycle;Signal;HPM_P1;HPM_P2
2023/03/29 00:00:21;;;;;;;3.90;2.20;;;5.60;99.90;;;;;;5076393;28;20069;-77
2023/03/29 00:02:47;;;;;;;2.63;1.90;;;5.60;99.90;;;;;;5075124;28;20075;-77
2023/03/29 00:05:18;;;;;;;3.10;1.80;;;5.60;99.90;;;;;;5093800;28;20094;-77
2023/03/29 00:07:44;;;;;;;4.10;2.17;;;5.70;99.90;;;;;;5076156;28;20051;-78
2023/03/29 00:10:11;;;;;;;3.33;2.00;;;5.60;99.90;;;;;;5093136;28;20052;-78
2023/03/29 00:12:38;;;;;;;4.18;2.13;;;5.60;99.90;;;;;;5074954;28;20518;-79
2023/03/29 00:15:05;;;;;;;3.65;1.73;;;5.60;99.90;;;;;;5093094;28;20109;-80
2023/03/29 00:17:31;;;;;;;3.25;1.83;;;5.50;99.90;;;;;;5093654;28;20051;-77
2023/03/29 00:19:56;;;;;;;2.60;1.80;;;5.50;99.90;;;;;;5075200;28;20525;-79
2023/03/29 00:22:22;;;;;;;3.20;2.00;;;5.60;99.90;;;;;;5093051;28;20094;-79
2023/03/29 00:24:52;;;;;;;3.42;2.00;;;5.50;99.90;;;;;;5093355;28;20052;-78
2023/03/29 00:27:18;;;;;;;3.13;1.90;;;5.60;99.90;;;;;;5075265;28;20048;-78
2023/03/29 00:29:44;;;;;;;3.25;1.95;;;5.50;99.90;;;;;;5075433;28;20381;-77
2023/03/29 00:32:10;;;;;;;3.30;2.13;;;5.50;99.90;;;;;;5076025;28;20051;-79
2023/03/29 00:34:35;;;;;;;3.88;2.10;;;5.50;99.90;;;;;;5092909;28;20384;-78
2023/03/29 00:37:03;;;;;;;4.88;2.35;;;5.50;99.90;;;;;;5075978;28;20044;-79
2023/03/29 00:39:30;;;;;;;2.92;1.90;;;5.50;99.90;;;;;;5076970;28;20083;-78
2023/03/29 00:41:55;;;;;;;3.33;1.95;;;5.40;99.90;;;;;;5078627;28;20131;-79
2023/03/29 00:44:57;;;;;;;3.75;2.05;;;5.40;99.90;;;;;;5062055;28;20135;-79
2023/03/29 00:47:47;;;;;;;3.78;2.30;;;5.40;99.90;;;;;;5078883;28;20046;-78
2023/03/29 00:50:25;;;;;;;4.28;2.00;;;5.40;99.90;;;;;;5078877;28;20052;-78
2023/03/29 00:52:57;;;;;;;4.47;2.28;;;5.40;99.90;;;;;;5097286;28;20396;-78
2023/03/29 00:55:26;;;;;;;3.92;2.20;;;5.50;99.90;;;;;;5078273;28;20050;-80
2023/03/29 00:57:54;;;;;;;5.07;2.40;;;5.40;99.90;;;;;;5096897;28;20052;-78
2023/03/29 01:00:25;;;;;;;4.35;2.25;;;5.50;99.90;;;;;;5096238;28;20052;-79
2023/03/29 01:02:54;;;;;;;3.90;2.17;;;5.50;99.90;;;;;;5096268;28;20041;-77
2023/03/29 01:05:29;;;;;;;3.55;2.10;;;5.50;99.90;;;;;;5078323;28;20059;-78
2023/03/29 01:08:05;;;;;;;3.10;2.45;;;5.40;99.90;;;;;;5078579;28;20051;-78
2023/03/29 01:10:42;;;;;;;4.10;2.47;;;5.50;99.90;;;;;;5096237;28;20106;-80
2023/03/29 01:13:12;;;;;;;4.80;2.40;;;5.50;99.90;;;;;;5096086;28;20052;-78
2023/03/29 01:15:40;;;;;;;3.22;2.22;;;5.50;99.90;;;;;;5078224;28;20055;-78
2023/03/29 01:18:07;;;;;;;3.78;2.20;;;5.50;99.90;;;;;;5078057;28;20056;-78
2023/03/29 01:20:52;;;;;;;3.47;2.22;;;5.50;99.90;;;;;;5062281;28;20066;-79
2023/03/29 01:23:39;;;;;;;3.95;1.90;;;5.50;99.90;;;;;;5096516;28;20113;-77
2023/03/29 01:26:25;;;;;;;4.03;2.22;;;5.50;99.90;;;;;;5095871;28;20051;-76
2023/03/29 01:29:10;;;;;;;;;;;5.50;99.90;;;;;;5079187;28;20036;-77
2023/03/29 01:31:50;;;;;;;5.22;2.60;;;5.50;99.90;;;;;;5077603;28;20437;-77
2023/03/29 01:34:24;;;;;;;4.85;2.33;;;5.50;99.90;;;;;;5095803;28;20087;-76
2023/03/29 01:37:25;;;;;;;5.35;2.90;;;5.50;99.90;;;;;;5062004;28;20155;-77
2023/03/29 01:39:52;;;;;;;3.70;2.25;;;5.50;99.90;;;;;;5041965;28;20048;-77
2023/03/29 01:42:42;;;;;;;4.63;2.30;;;5.50;99.90;;;;;;5095515;28;20048;-77
2023/03/29 01:45:19;;;;;;;4.03;2.72;;;5.50;99.90;;;;;;5078634;28;20044;-78
2023/03/29 01:48:00;;;;;;;4.78;2.75;;;5.50;99.90;;;;;;5098409;28;20105;-78
2023/03/29 01:50:47;;;;;;;3.50;2.30;;;5.40;99.90;;;;;;5079357;28;20524;-76
2023/03/29 01:53:33;;;;;;;4.80;2.97;;;5.50;99.90;;;;;;5078506;28;20070;-79
2023/03/29 01:56:04;;;;;;;4.75;3.17;;;5.60;99.90;;;;;;5095521;28;20048;-77
2023/03/29 01:58:37;;;;;;;4.90;3.42;;;5.40;99.90;;;;;;5077805;28;20044;-77
2023/03/29 02:01:08;;;;;;;6.03;3.28;;;5.40;99.90;;;;;;5094969;28;20043;-76
2023/03/29 02:03:41;;;;;;;5.63;3.25;;;5.30;99.90;;;;;;5095372;28;20576;-78
2023/03/29 02:06:09;;;;;;;5.22;3.13;;;5.40;99.90;;;;;;5077343;28;20048;-78
2023/03/29 02:08:37;;;;;;;6.53;3.90;;;5.40;99.90;;;;;;5077450;28;20100;-76
2023/03/29 02:11:04;;;;;;;4.90;3.50;;;5.40;99.90;;;;;;5095731;28;20056;-77
2023/03/29 02:13:30;;;;;;;7.22;4.50;;;5.40;99.90;;;;;;5095278;28;20048;-77
2023/03/29 02:15:58;;;;;;;8.63;4.75;;;5.40;99.90;;;;;;5077310;28;20110;-78
2023/03/29 02:18:25;;;;;;;7.28;4.28;;;5.40;99.90;;;;;;5077325;28;20370;-78
2023/03/29 02:20:52;;;;;;;7.00;4.78;;;5.40;99.90;;;;;;5060132;28;20051;-78
2023/03/29 02:23:20;;;;;;;6.88;4.43;;;5.40;99.90;;;;;;5076810;28;20074;-77
2023/03/29 02:25:49;;;;;;;9.68;4.85;;;5.40;99.90;;;;;;5094657;28;20048;-77
2023/03/29 02:28:16;;;;;;;6.68;4.55;;;5.40;99.90;;;;;;5076833;28;20052;-77
2023/03/29 02:30:54;;;;;;;7.93;5.05;;;5.40;99.90;;;;;;5094571;28;20048;-78
2023/03/29 02:33:32;;;;;;;9.95;6.30;;;5.40;99.90;;;;;;5077505;28;20060;-78
2023/03/29 02:36:12;;;;;;;8.95;4.80;;;5.40;99.90;;;;;;5076930;28;20059;-79
2023/03/29 02:38:38;;;;;;;9.52;5.07;;;5.40;99.90;;;;;;5094474;28;20040;-79
2023/03/29 02:41:05;;;;;;;8.25;6.03;;;5.40;99.90;;;;;;5076290;28;20048;-78
2023/03/29 02:43:33;;;;;;;7.60;5.13;;;5.40;99.90;;;;;;5076675;28;20056;-79
2023/03/29 02:46:00;;;;;;;6.57;5.07;;;5.30;99.90;;;;;;5076390;28;20059;-79
2023/03/29 02:48:28;;;;;;;8.15;5.82;;;5.30;99.90;;;;;;5076001;28;20059;-79
2023/03/29 02:50:58;;;;;;;10.48;5.95;;;5.40;99.90;;;;;;5076277;28;20044;-79
2023/03/29 02:53:40;;;;;;;10.10;5.53;;;5.40;99.90;;;;;;5077135;28;20178;-77
2023/03/29 02:56:06;;;;;;;9.93;5.45;;;5.40;99.90;;;;;;5094713;28;20059;-77
2023/03/29 02:58:32;;;;;;;8.48;6.03;;;5.30;99.90;;;;;;5075881;28;20564;-78
2023/03/29 03:01:00;;;;;;;9.02;5.43;;;5.40;99.90;;;;;;5076157;28;20146;-78
2023/03/29 03:03:26;;;;;;;7.88;5.35;;;5.40;99.90;;;;;;5059152;28;20036;-77
2023/03/29 03:05:52;;;;;;;10.35;5.57;;;5.40;99.90;;;;;;5093926;28;20051;-78
2023/03/29 03:08:18;;;;;;;8.57;5.68;;;5.40;99.90;;;;;;5093884;28;20048;-78
2023/03/29 03:10:44;;;;;;;9.70;5.70;;;5.40;99.90;;;;;;5076071;28;20048;-78
2023/03/29 03:13:11;;;;;;;7.07;4.95;;;5.40;99.90;;;;;;5093499;28;20467;-78
2023/03/29 03:15:41;;;;;;;9.30;5.55;;;5.40;99.90;;;;;;5094066;28;20495;-78
2023/03/29 03:18:11;;;;;;;9.35;5.18;;;5.40;99.90;;;;;;5075854;28;20102;-78
2023/03/29 03:20:36;;;;;;;9.38;5.47;;;5.40;99.90;;;;;;5075830;28;20539;-78
2023/03/29 03:23:02;;;;;;;9.05;6.18;;;5.40;99.90;;;;;;5093718;28;20094;-78
2023/03/29 03:25:28;;;;;;;8.80;5.70;;;5.40;99.90;;;;;;5076016;28;20044;-78
2023/03/29 03:27:54;;;;;;;10.68;6.15;;;5.40;99.90;;;;;;5076507;28;20051;-79
2023/03/29 03:30:20;;;;;;;8.20;5.63;;;5.40;99.90;;;;;;5076438;28;20063;-79
2023/03/29 03:32:46;;;;;;;7.63;5.47;;;5.40;99.90;;;;;;5094011;28;20453;-78
2023/03/29 03:35:12;;;;;;;8.20;5.38;;;5.50;99.90;;;;;;5075423;28;20484;-79
2023/03/29 03:37:39;;;;;;;9.95;5.53;;;5.50;99.90;;;;;;5075305;28;20500;-79
2023/03/29 03:40:10;;;;;;;9.65;5.55;;;5.50;99.90;;;;;;5076008;28;20044;-77
2023/03/29 03:42:40;;;;;;;7.55;5.30;;;5.50;99.90;;;;;;5075748;28;20048;-79
2023/03/29 03:45:07;;;;;;;9.52;5.50;;;5.50;99.90;;;;;;5075929;28;20048;-80
2023/03/29 03:47:36;;;;;;;9.18;5.03;;;5.50;99.90;;;;;;5075567;28;20056;-79
2023/03/29 03:50:02;;;;;;;7.90;5.72;;;5.50;99.90;;;;;;5075365;28;20399;-79
2023/03/29 03:52:28;;;;;;;7.40;5.05;;;5.50;99.90;;;;;;5075603;28;20054;-78
2023/03/29 03:54:54;;;;;;;8.88;5.50;;;5.60;99.90;;;;;;5093420;28;20048;-79
2023/03/29 03:57:21;;;;;;;8.80;5.70;;;5.50;99.90;;;;;;5075463;28;20501;-78
2023/03/29 03:59:47;;;;;;;8.88;5.43;;;5.50;99.90;;;;;;5058779;28;20052;-78
2023/03/29 04:02:15;;;;;;;11.73;5.90;;;5.60;99.90;;;;;;5093272;28;20374;-79
2023/03/29 04:04:41;;;;;;;8.18;5.60;;;5.80;99.90;;;;;;5075496;28;20088;-78
2023/03/29 04:07:07;;;;;;;10.02;5.55;;;5.50;99.90;;;;;;5093354;28;20048;-78
2023/03/29 04:09:33;;;;;;;7.47;5.18;;;5.60;99.90;;;;;;5093203;28;20083;-78
2023/03/29 04:12:00;;;;;;;8.65;5.35;;;5.60;99.90;;;;;;5092956;28;20048;-77
2023/03/29 04:14:26;;;;;;;7.78;5.07;;;5.60;99.90;;;;;;5079286;28;20056;-77
2023/03/29 04:16:55;;;;;;;8.05;5.30;;;5.60;99.90;;;;;;5079401;28;20106;-78
2023/03/29 04:19:21;;;;;;;10.43;5.93;;;5.60;99.90;;;;;;5097065;28;20401;-77
2023/03/29 04:21:48;;;;;;;8.60;5.70;;;5.60;99.90;;;;;;5079073;28;20044;-79
2023/03/29 04:24:16;;;;;;;7.35;5.70;;;5.60;99.90;;;;;;5079121;28;20400;-79
2023/03/29 04:26:42;;;;;;;8.18;6.38;;;5.60;99.90;;;;;;5096940;28;20044;-77
2023/03/29 04:29:08;;;;;;;8.80;6.22;;;5.60;99.90;;;;;;5096945;28;20055;-78
2023/03/29 04:31:34;;;;;;;8.82;5.60;;;5.60;99.90;;;;;;5078729;28;20400;-79
2023/03/29 04:34:00;;;;;;;8.00;5.70;;;5.60;99.90;;;;;;5096846;28;20052;-79
2023/03/29 04:36:25;;;;;;;11.20;6.20;;;5.50;99.90;;;;;;5096834;28;20047;-77
2023/03/29 04:38:51;;;;;;;10.23;6.70;;;5.50;99.90;;;;;;5096757;28;20431;-80
2023/03/29 04:41:17;;;;;;;9.40;6.55;;;5.40;99.90;;;;;;5062820;28;20048;-79
2023/03/29 04:43:46;;;;;;;9.75;6.43;;;5.40;99.90;;;;;;5096610;28;20055;-78
2023/03/29 04:46:13;;;;;;;8.60;6.32;;;5.50;99.90;;;;;;5078990;28;20090;-80
2023/03/29 04:48:39;;;;;;;9.05;5.40;;;5.40;99.90;;;;;;5079309;28;20454;-78
2023/03/29 04:51:05;;;;;;;8.25;5.65;;;5.40;99.90;;;;;;5096719;28;20048;-80
2023/03/29 04:53:31;;;;;;;8.70;6.30;;;5.40;99.90;;;;;;5078781;28;20476;-79
2023/03/29 04:55:58;;;;;;;8.95;6.32;;;5.50;99.90;;;;;;5078484;28;20048;-80
2023/03/29 04:58:25;;;;;;;9.73;5.80;;;5.40;99.90;;;;;;5096869;28;20135;-80
2023/03/29 05:00:50;;;;;;;8.45;5.68;;;5.50;99.90;;;;;;5078770;28;20121;-80
2023/03/29 05:03:16;;;;;;;8.68;6.40;;;5.50;99.90;;;;;;5078157;28;20043;-80
2023/03/29 05:05:42;;;;;;;9.27;6.03;;;5.50;99.90;;;;;;5079166;28;20044;-80
2023/03/29 05:08:08;;;;;;;8.35;5.95;;;5.50;99.90;;;;;;5096419;28;20092;-80
2023/03/29 05:10:35;;;;;;;8.75;6.10;;;5.50;99.90;;;;;;5078553;28;20606;-78
2023/03/29 05:13:02;;;;;;;8.27;6.20;;;5.60;99.90;;;;;;5096184;28;20060;-79
2023/03/29 05:15:30;;;;;;;9.98;5.80;;;5.60;99.90;;;;;;5096025;28;20044;-80
2023/03/29 05:17:57;;;;;;;11.20;7.03;;;5.60;99.90;;;;;;5095871;28;20051;-79
2023/03/29 05:20:23;;;;;;;9.48;5.90;;;5.60;99.90;;;;;;5078036;28;20040;-78
2023/03/29 05:22:51;;;;;;;10.65;5.82;;;5.60;99.90;;;;;;5078521;28;20044;-79
2023/03/29 05:25:17;;;;;;;9.38;6.70;;;5.60;99.90;;;;;;5095249;28;20040;-79
2023/03/29 05:27:44;;;;;;;10.13;6.40;;;5.60;99.90;;;;;;5061420;28;20407;-79
2023/03/29 05:30:12;;;;;;;10.65;6.65;;;5.50;99.90;;;;;;5096244;28;20129;-79
2023/03/29 05:32:37;;;;;;;10.70;7.03;;;5.50;99.90;;;;;;5078059;28;20052;-78
2023/03/29 05:35:04;;;;;;;10.88;7.47;;;5.50;99.90;;;;;;5078497;28;20175;-78
2023/03/29 05:37:32;;;;;;;10.65;7.80;;;5.40;99.90;;;;;;5095624;28;20147;-79
2023/03/29 05:39:58;;;;;;;14.38;8.30;;;5.40;99.90;;;;;;5077989;28;20051;-80
2023/03/29 05:42:23;;;;;;;10.48;7.25;;;5.40;99.90;;;;;;5095396;28;20048;-76
2023/03/29 05:44:49;;;;;;;11.60;7.75;;;5.50;99.90;;;;;;5096072;28;20084;-79
2023/03/29 05:47:15;;;;;;;11.68;7.72;;;5.30;99.90;;;;;;5077339;28;20048;-78
2023/03/29 05:49:41;;;;;;;12.85;8.05;;;5.30;99.90;;;;;;5077114;28;20036;-79
2023/03/29 05:52:07;;;;;;;10.93;7.38;;;5.30;99.90;;;;;;5078353;28;20073;-79
2023/03/29 05:54:32;;;;;;;12.32;8.30;;;5.30;99.90;;;;;;5077197;28;20040;-80
2023/03/29 05:56:58;;;;;;;11.45;8.18;;;5.30;99.90;;;;;;5060768;28;20051;-79
2023/03/29 05:59:27;;;;;;;15.10;8.98;;;5.50;99.90;;;;;;5095581;28;20043;-78
2023/03/29 06:01:52;;;;;;;15.65;8.85;;;5.30;99.90;;;;;;5076999;28;20048;-80
2023/03/29 06:04:19;;;;;;;11.10;8.40;;;5.20;99.90;;;;;;5095752;28;20051;-80
2023/03/29 06:06:45;;;;;;;13.68;9.35;;;5.20;99.90;;;;;;5096671;28;20130;-79
2023/03/29 06:09:11;;;;;;;13.77;9.20;;;5.30;99.90;;;;;;5096273;28;20113;-80
2023/03/29 06:11:36;;;;;;;12.07;8.02;;;5.20;99.90;;;;;;5077332;28;20048;-78
2023/03/29 06:14:03;;;;;;;13.02;8.90;;;5.20;99.90;;;;;;5095912;28;20106;-79
2023/03/29 06:16:29;;;;;;;12.25;8.52;;;5.30;99.90;;;;;;5060329;28;20052;-80
2023/03/29 06:18:55;;;;;;;14.05;9.50;;;5.30;99.90;;;;;;5076771;28;20044;-71
2023/03/29 06:21:21;;;;;;;12.52;8.88;;;5.30;99.90;;;;;;5076369;28;20055;-71
2023/03/29 06:23:47;;;;;;;15.27;9.15;;;5.30;99.90;;;;;;5076846;28;20052;-70
2023/03/29 06:26:13;;;;;;;13.48;8.73;;;5.30;99.90;;;;;;5094559;28;20389;-71
2023/03/29 06:28:39;;;;;;;14.45;9.15;;;5.40;99.90;;;;;;5094510;28;20130;-71
2023/03/29 06:31:05;;;;;;;13.10;9.00;;;5.40;99.90;;;;;;5095330;28;20116;-70
2023/03/29 06:33:31;;;;;;;13.43;9.02;;;5.40;99.90;;;;;;5094079;28;20540;-70
2023/03/29 06:35:57;;;;;;;12.98;8.50;;;5.40;99.90;;;;;;5094450;28;20048;-70
2023/03/29 06:38:25;;;;;;;11.25;7.95;;;5.50;99.90;;;;;;5076635;28;20131;-71
2023/03/29 06:40:58;;;;;;;12.00;8.73;;;5.50;99.90;;;;;;5094186;28;20044;-71
2023/03/29 06:43:24;;;;;;;10.77;7.97;;;5.50;99.90;;;;;;5077265;28;20487;-71
2023/03/29 06:45:49;;;;;;;13.57;8.70;;;5.50;99.90;;;;;;5094276;28;20055;-71
2023/03/29 06:48:15;;;;;;;14.48;8.43;;;5.60;99.90;;;;;;5094194;28;20047;-71
2023/03/29 06:50:41;;;;;;;12.32;8.07;;;5.60;99.90;;;;;;5094261;28;20048;-70
2023/03/29 06:53:06;;;;;;;11.80;8.00;;;5.60;99.90;;;;;;5094767;28;20131;-73
2023/03/29 06:55:33;;;;;;;11.63;7.53;;;5.60;99.90;;;;;;5094687;28;20044;-70
2023/03/29 06:57:59;;;;;;;12.00;8.38;;;5.60;99.90;;;;;;5059550;28;20059;-72
2023/03/29 07:00:28;;;;;;;11.32;7.53;;;5.70;99.90;;;;;;5076107;28;20051;-71
2023/03/29 07:02:59;;;;;;;13.05;8.05;;;5.70;99.90;;;;;;5093901;28;20105;-71
2023/03/29 07:05:26;;;;;;;11.77;6.80;;;5.80;99.90;;;;;;5076405;28;20048;-72
2023/03/29 07:07:55;;;;;;;12.05;8.27;;;5.80;99.90;;;;;;5093265;28;20114;-78
2023/03/29 07:10:27;;;;;;;10.35;6.85;;;5.80;99.90;;;;;;5076495;28;20047;-79
2023/03/29 07:12:53;;;;;;;12.15;6.97;;;5.90;99.90;;;;;;5076001;28;20052;-80
2023/03/29 07:15:20;;;;;;;12.20;7.10;;;5.90;99.90;;;;;;5094275;28;20047;-80
2023/03/29 07:17:47;;;;;;;11.35;7.40;;;6.00;99.90;;;;;;5042595;28;20138;-79
2023/03/29 07:20:14;;;;;;;11.80;7.28;;;6.00;99.90;;;;;;5076116;28;20079;-80
2023/03/29 07:22:45;;;;;;;8.95;6.15;;;6.10;99.90;;;;;;5075589;28;20060;-79
2023/03/29 07:25:12;;;;;;;8.93;6.53;;;6.10;99.90;;;;;;5094574;28;20044;-78
2023/03/29 07:27:39;;;;;;;12.40;6.70;;;6.10;99.90;;;;;;5075714;28;20511;-78
2023/03/29 07:30:09;;;;;;;11.38;6.50;;;6.10;99.90;;;;;;5075716;28;20040;-76
2023/03/29 07:32:37;;;;;;;9.65;5.85;;;6.10;99.90;;;;;;5075457;28;20048;-77
2023/03/29 07:35:04;;;;;;;10.27;6.30;;;6.10;99.90;;;;;;5075639;28;20438;-76
2023/03/29 07:37:31;;;;;;;8.07;5.43;;;6.10;99.90;;;;;;5075597;28;20117;-77
2023/03/29 07:39:58;;;;;;;8.95;5.65;;;6.10;99.90;;;;;;5093389;28;20091;-78
2023/03/29 07:42:24;;;;;;;10.52;6.53;;;6.10;99.90;;;;;;5093405;28;20048;-77
2023/03/29 07:44:50;;;;;;;8.38;5.68;;;6.20;99.90;;;;;;5093430;28;20446;-76
2023/03/29 07:47:16;;;;;;;8.27;5.25;;;6.20;99.90;;;;;;5094667;28;20046;-76
2023/03/29 07:49:42;;;;;;;11.13;6.18;;;6.30;99.90;;;;;;5082908;28;20089;-76
2023/03/29 07:52:08;;;;;;;10.73;6.20;;;6.30;99.90;;;;;;5099770;28;20040;-77
2023/03/29 07:54:33;;;;;;;9.15;5.57;;;6.30;99.90;;;;;;5100418;28;20501;-78
2023/03/29 07:56:59;;;;;;;9.20;5.32;;;6.40;99.90;;;;;;5100061;28;20138;-77
2023/03/29 07:59:26;;;;;;;8.52;5.50;;;6.40;99.90;;;;;;5099930;28;20098;-77
2023/03/29 08:01:52;;;;;;;8.02;5.47;;;6.40;99.90;;;;;;5099799;28;20032;-78
2023/03/29 08:04:18;;;;;;;8.23;5.82;;;6.40;99.90;;;;;;5082310;28;20050;-77
2023/03/29 08:06:44;;;;;;;9.60;5.85;;;6.40;99.90;;;;;;5065407;28;20130;-79
2023/03/29 08:09:10;;;;;;;8.38;5.47;;;6.50;99.90;;;;;;5082426;28;20101;-78
2023/03/29 08:11:38;;;;;;;9.13;5.32;;;6.50;99.90;;;;;;5099876;28;20040;-78
2023/03/29 08:14:04;;;;;;;8.85;4.95;;;6.50;99.90;;;;;;5100090;28;20101;-78
2023/03/29 08:16:30;;;;;;;8.50;6.20;;;6.60;99.90;;;;;;5065152;28;20048;-77
2023/03/29 08:18:56;;;;;;;8.85;5.72;;;6.60;99.90;;;;;;5081879;28;20047;-77
2023/03/29 08:21:22;;;;;;;8.45;5.85;;;6.60;99.90;;;;;;5082485;28;20056;-77
2023/03/29 08:23:48;;;;;;;7.68;5.10;;;6.60;99.90;;;;;;5099747;28;20044;-77
2023/03/29 08:26:14;;;;;;;8.98;5.10;;;6.70;99.90;;;;;;5081947;28;20465;-77
2023/03/29 08:28:40;;;;;;;7.38;5.63;;;6.70;99.90;;;;;;5099712;28;20051;-77
2023/03/29 08:31:08;;;;;;;7.82;4.97;;;6.80;99.90;;;;;;5099727;28;20039;-76
2023/03/29 08:33:35;;;;;;;8.15;5.55;;;6.80;99.90;;;;;;5082107;28;20427;-76
2023/03/29 08:36:02;;;;;;;8.40;5.90;;;6.90;99.90;;;;;;5081658;28;20044;-79
2023/03/29 08:38:27;;;;;;;8.55;5.70;;;6.90;99.90;;;;;;5099638;28;20393;-78
2023/03/29 08:40:54;;;;;;;7.97;4.85;;;6.90;99.90;;;;;;5099536;28;20039;-78
2023/03/29 08:43:19;;;;;;;7.80;5.05;;;7.00;99.90;;;;;;5064997;28;20147;-79
2023/03/29 08:45:54;;;;;;;7.60;4.63;;;7.00;99.90;;;;;;5081780;28;20506;-78
2023/03/29 08:48:27;;;;;;;8.20;5.35;;;7.10;99.90;;;;;;5100024;28;20048;-78
2023/03/29 08:50:58;;;;;;;7.68;4.47;;;7.20;99.90;;;;;;5100099;28;20048;-78
2023/03/29 08:53:46;;;;;;;7.38;4.55;;;7.30;99.90;;;;;;5099606;28;20123;-77
2023/03/29 08:56:15;;;;;;;6.57;4.38;;;7.30;99.90;;;;;;5099414;28;20040;-77
2023/03/29 08:58:42;;;;;;;8.18;5.40;;;7.40;99.90;;;;;;5098527;28;20044;-77
2023/03/29 09:01:10;;;;;;;8.00;5.53;;;7.50;99.90;;;;;;5095904;28;20130;-79
2023/03/29 09:04:00;;;;;;;8.02;5.53;;;7.60;99.90;;;;;;5096233;28;20048;-78
2023/03/29 09:06:26;;;;;;;7.28;5.20;;;7.60;99.90;;;;;;5096698;28;20097;-77
2023/03/29 09:08:52;;;;;;;6.32;4.20;;;7.70;99.90;;;;;;5096122;28;20055;-79
2023/03/29 09:11:23;;;;;;;7.35;4.88;;;7.80;99.90;;;;;;5096078;28;20048;-83
2023/03/29 09:14:26;;;;;;;8.05;3.88;;;7.90;99.90;;;;;;5096059;28;20091;-76
2023/03/29 09:17:36;;;;;;;6.03;4.28;;;8.00;99.90;;;;;;5095955;28;20048;-77
2023/03/29 09:20:29;;;;;;;8.55;4.85;;;8.10;99.90;;;;;;4977851;28;20153;-76
2023/03/29 09:23:13;;;;;;;8.25;5.38;;;8.20;99.90;;;;;;4977987;28;20450;-78
2023/03/29 09:25:45;;;;;;;7.30;5.03;;;8.40;99.90;;;;;;5077284;28;20631;-77
2023/03/29 09:28:31;;;;;;;6.07;4.38;;;8.50;99.90;;;;;;5078676;28;20121;-76
2023/03/29 09:31:06;;;;;;;6.38;4.78;;;8.60;99.90;;;;;;5095964;28;20443;-76
2023/03/29 09:33:43;;;;;;;6.72;4.50;;;8.80;99.90;;;;;;5096204;28;20465;-75
2023/03/29 09:36:16;;;;;;;6.22;4.18;;;9.00;99.90;;;;;;5077819;28;20461;-76
2023/03/29 09:38:46;;;;;;;5.85;4.60;;;9.10;99.90;;;;;;5060619;28;20080;-81
2023/03/29 09:41:45;;;;;;;6.90;4.63;;;9.20;99.90;;;;;;5095913;28;20131;-80
2023/03/29 09:44:23;;;;;;;7.28;5.30;;;9.10;99.90;;;;;;5077524;28;20489;-77
2023/03/29 09:46:57;;;;;;;7.90;5.18;;;9.10;99.90;;;;;;5096344;28;20062;-86
2023/03/29 09:49:28;;;;;;;5.88;3.90;;;9.10;99.90;;;;;;5078225;28;20046;-85
2023/03/29 09:51:58;;;;;;;6.85;4.70;;;9.10;99.90;;;;;;5095731;28;20036;-77
2023/03/29 09:54:24;;;;;;;5.95;4.20;;;9.00;99.90;;;;;;5077658;28;20048;-79
2023/03/29 09:56:51;;;;;;;7.00;4.60;;;9.00;99.90;;;;;;5095703;28;20130;-77
2023/03/29 09:59:17;;;;;;;7.00;4.72;;;9.10;99.90;;;;;;5077261;28;20499;-76
2023/03/29 10:01:46;;;;;;;6.97;4.90;;;9.10;99.90;;;;;;5094946;28;20043;-77
2023/03/29 10:04:15;;;;;;;7.63;4.38;;;9.20;99.90;;;;;;5095013;28;20051;-75
2023/03/29 10:06:49;;;;;;;8.07;4.80;;;9.30;99.90;;;;;;5076763;28;20048;-79
2023/03/29 10:09:21;;;;;;;7.53;4.97;;;9.30;99.90;;;;;;5077885;28;20091;-79
2023/03/29 10:11:57;;;;;;;6.15;4.47;;;9.30;99.90;;;;;;5094164;28;20522;-79
2023/03/29 10:14:52;;;;;;;8.30;4.53;;;9.30;99.90;;;;;;5094761;28;20096;-76
2023/03/29 10:17:21;;;;;;;7.88;4.97;;;9.40;99.90;;;;;;5065833;28;20052;-79
2023/03/29 10:19:48;;;;;;;7.57;4.93;;;9.40;99.90;;;;;;5077704;28;20157;-82
2023/03/29 10:22:18;;;;;;;8.23;5.07;;;9.40;99.90;;;;;;5094605;28;20127;-80
2023/03/29 10:24:50;;;;;;;8.25;5.20;;;9.50;99.90;;;;;;5094582;28;20040;-79
2023/03/29 10:27:20;;;;;;;8.23;4.85;;;9.60;99.90;;;;;;5094906;28;20109;-80
2023/03/29 10:29:46;;;;;;;8.93;5.40;;;9.70;99.90;;;;;;5076749;28;20090;-81
2023/03/29 10:32:21;;;;;;;7.18;5.55;;;9.70;99.90;;;;;;5093966;28;20086;-79
2023/03/29 10:34:49;;;;;;;8.55;5.65;;;9.80;99.90;;;;;;5060211;28;20056;-81
2023/03/29 10:37:18;;;;;;;7.32;5.53;;;9.80;99.90;;;;;;5076468;28;20171;-80
2023/03/29 10:39:45;;;;;;;8.77;5.90;;;9.80;99.90;;;;;;5076574;28;20095;-82
2023/03/29 10:42:23;;;;;;;9.07;5.75;;;9.90;99.90;;;;;;5094075;28;20044;-81
2023/03/29 10:44:57;;;;;;;7.68;5.10;;;10.00;99.90;;;;;;5096084;28;20512;-81
2023/03/29 10:47:23;;;;;;;9.75;6.53;;;10.00;99.90;;;;;;5096257;28;20483;-82
2023/03/29 10:49:53;;;;;;;7.53;5.20;;;10.10;99.90;;;;;;5094600;28;20048;-76
2023/03/29 10:52:20;;;;;;;8.18;5.57;;;10.10;99.90;;;;;;5094023;28;20080;-80
2023/03/29 10:54:47;;;;;;;9.32;5.85;;;10.10;99.90;;;;;;5076457;28;20040;-83
2023/03/29 10:57:22;;;;;;;11.32;6.05;;;10.10;99.90;;;;;;5093928;28;20127;-80
2023/03/29 11:00:01;;;;;;;9.50;5.78;;;10.20;99.90;;;;;;5094714;28;20420;-81
2023/03/29 11:02:58;;;;;;;9.45;6.30;;;10.20;99.90;;;;;;5093859;28;20048;-81
2023/03/29 11:05:45;;;;;;;8.18;5.72;;;10.40;99.90;;;;;;5094425;28;20044;-85
2023/03/29 11:08:22;;;;;;;7.10;5.60;;;10.60;99.90;;;;;;5093764;28;20101;-82
2023/03/29 11:10:59;;;;;;;7.22;5.72;;;10.70;99.90;;;;;;5076289;28;20051;-82
2023/03/29 11:13:45;;;;;;;7.28;5.93;;;10.80;99.90;;;;;;5093176;28;20503;-78
2023/03/29 11:16:21;;;;;;;7.50;5.10;;;10.80;99.90;;;;;;5094047;28;20048;-81
2023/03/29 11:19:10;;;;;;;7.68;5.50;;;10.80;99.90;;;;;;5094102;28;20052;-79
2023/03/29 11:21:54;;;;;;;8.68;5.68;;;10.80;99.90;;;;;;5093547;28;20044;-81
2023/03/29 11:24:52;;;;;;;7.57;6.22;;;10.80;99.90;;;;;;5093677;28;20059;-80
2023/03/29 11:27:34;;;;;;;8.98;5.45;;;10.90;99.90;;;;;;5093469;28;20094;-77
2023/03/29 11:30:38;;;;;;;8.00;5.50;;;10.90;99.90;;;;;;5093641;28;20440;-81
2023/03/29 11:33:16;;;;;;;7.00;5.15;;;10.90;99.90;;;;;;5093484;28;20043;-79
2023/03/29 11:35:48;;;;;;;8.23;5.47;;;10.90;99.90;;;;;;5093360;28;20048;-79
2023/03/29 11:38:42;;;;;;;8.13;5.60;;;11.00;99.90;;;;;;5093968;28;20043;-81
2023/03/29 11:41:16;;;;;;;6.57;5.28;;;11.20;99.90;;;;;;5093398;28;20139;-78
2023/03/29 11:44:12;;;;;;;5.97;4.35;;;11.20;99.90;;;;;;5075453;28;20051;-78
2023/03/29 11:46:57;;;;;;;6.03;5.00;;;11.20;99.90;;;;;;5093280;28;20044;-78
2023/03/29 11:49:33;;;;;;;8.55;5.80;;;11.20;99.90;;;;;;5093125;28;20476;-81
2023/03/29 11:52:23;;;;;;;8.70;5.80;;;11.20;99.90;;;;;;5093095;28;20084;-80
2023/03/29 11:54:57;;;;;;;6.95;5.20;;;11.30;99.90;;;;;;5093894;28;20487;-80
2023/03/29 11:57:39;;;;;;;6.45;4.68;;;11.40;99.90;;;;;;5076004;28;20063;-80
2023/03/29 12:00:21;;;;;;;7.18;5.25;;;11.40;99.90;;;;;;5092986;28;20097;-79
2023/03/29 12:03:00;;;;;;;5.90;5.28;;;11.50;99.90;;;;;;5093567;28;20040;-77
2023/03/29 12:05:30;;;;;;;6.78;5.18;;;11.60;99.90;;;;;;5093163;28;20122;-80
2023/03/29 12:08:31;;;;;;;6.43;4.68;;;11.60;99.90;;;;;;5075528;28;20106;-77
2023/03/29 12:11:05;;;;;;;6.32;4.95;;;11.60;99.90;;;;;;5093769;28;20112;-84
2023/03/29 12:13:39;;;;;;;7.05;4.93;;;11.70;99.90;;;;;;5093027;28;20415;-81
2023/03/29 12:16:28;;;;;;;7.38;4.78;;;11.80;99.90;;;;;;5092850;28;20048;-82
2023/03/29 12:18:56;;;;;;;7.28;4.82;;;11.90;99.90;;;;;;5092952;28;20477;-80
2023/03/29 12:21:25;;;;;;;8.50;5.32;;;11.90;99.90;;;;;;5092948;28;20051;-80
2023/03/29 12:23:51;;;;;;;6.00;4.30;;;11.90;99.90;;;;;;5092835;28;20040;-82
2023/03/29 12:26:48;;;;;;;6.53;4.72;;;12.00;99.90;;;;;;5092942;28;20048;-83
2023/03/29 12:29:57;;;;;;;7.15;4.88;;;12.10;99.90;;;;;;5075287;28;20051;-81
2023/03/29 12:32:28;;;;;;;6.40;4.10;;;12.30;99.90;;;;;;5075333;28;20051;-80
2023/03/29 12:35:15;;;;;;;6.45;4.20;;;12.40;99.90;;;;;;5095171;28;20135;-83
2023/03/29 12:37:58;;;;;;;5.65;4.40;;;12.50;99.90;;;;;;5079354;28;20372;-80
2023/03/29 12:40:34;;;;;;;5.47;4.43;;;12.70;99.90;;;;;;5096607;28;20079;-84
2023/03/29 12:43:06;;;;;;;6.20;4.35;;;12.70;99.90;;;;;;5096663;28;20109;-86
2023/03/29 12:45:47;;;;;;;6.38;4.50;;;12.70;99.90;;;;;;5079184;28;20044;-80
2023/03/29 12:48:25;;;;;;;6.88;4.60;;;12.70;99.90;;;;;;5096322;28;20044;-79
2023/03/29 12:50:59;;;;;;;7.45;4.70;;;12.70;99.90;;;;;;5096649;28;20044;-80
2023/03/29 12:53:33;;;;;;;8.80;5.38;;;12.60;99.90;;;;;;5096618;28;20078;-81
2023/03/29 12:56:02;;;;;;;7.45;5.10;;;12.60;99.90;;;;;;5079319;28;20057;-84
2023/03/29 12:58:41;;;;;;;6.60;4.78;;;12.50;99.90;;;;;;5096251;28;20047;-82
2023/03/29 13:01:25;;;;;;;7.78;5.30;;;12.50;99.90;;;;;;5096618;28;20493;-80
2023/03/29 13:04:19;;;;;;;8.43;5.35;;;12.40;99.90;;;;;;5078638;28;20047;-80
2023/03/29 13:06:47;;;;;;;6.72;4.85;;;12.40;99.90;;;;;;5078458;28;20044;-80
2023/03/29 13:09:29;;;;;;;6.53;4.75;;;12.40;99.90;;;;;;5096693;28;20048;-80
2023/03/29 13:12:04;;;;;;;6.72;4.70;;;12.40;99.90;;;;;;5096777;28;20366;-78
2023/03/29 13:14:34;;;;;;;5.83;4.40;;;12.40;99.90;;;;;;5095980;28;20497;-75